sensor_id;sensor_type;location;lat;lon;timestamp;temperature;humidity
62464;SHT31;48512;48.552;9.380;2023-08-06T00:00:29;15.29;91.24
62464;SHT31;48512;48.552;9.380;2023-08-06T00:02:55;15.27;91.26
62464;SHT31;48512;48.552;9.380;2023-08-06T00:05:21;15.22;91.41
62464;SHT31;48512;48.552;9.380;2023-08-06T00:07:48;15.19;91.68
62464;SHT31;48512;48.552;9.380;2023-08-06T00:10:14;15.22;91.36
62464;SHT31;48512;48.552;9.380;2023-08-06T00:12:40;15.25;91.25
62464;SHT31;48512;48.552;9.380;2023-08-06T00:15:07;15.26;91.09
62464;SHT31;48512;48.552;9.380;2023-08-06T00:17:34;15.18;91.59
62464;SHT31;48512;48.552;9.380;2023-08-06T00:20:01;15.33;91.01
62464;SHT31;48512;48.552;9.380;2023-08-06T00:22:32;15.09;91.00
62464;SHT31;48512;48.552;9.380;2023-08-06T00:24:58;15.18;90.79
62464;SHT31;48512;48.552;9.380;2023-08-06T00:27:24;15.30;89.25
62464;SHT31;48512;48.552;9.380;2023-08-06T00:29:51;15.15;89.56
62464;SHT31;48512;48.552;9.380;2023-08-06T00:32:18;15.02;90.11
62464;SHT31;48512;48.552;9.380;2023-08-06T00:34:45;14.88;90.85
62464;SHT31;48512;48.552;9.380;2023-08-06T00:37:11;14.87;90.51
62464;SHT31;48512;48.552;9.380;2023-08-06T00:39:39;14.89;90.42
62464;SHT31;48512;48.552;9.380;2023-08-06T00:42:05;14.81;90.48
62464;SHT31;48512;48.552;9.380;2023-08-06T00:44:31;14.81;90.49
62464;SHT31;48512;48.552;9.380;2023-08-06T00:46:57;14.95;89.59
62464;SHT31;48512;48.552;9.380;2023-08-06T00:49:23;14.67;89.95
62464;SHT31;48512;48.552;9.380;2023-08-06T00:51:50;14.63;90.08
62464;SHT31;48512;48.552;9.380;2023-08-06T00:54:16;14.63;90.40
62464;SHT31;48512;48.552;9.380;2023-08-06T00:56:42;14.71;90.13
62464;SHT31;48512;48.552;9.380;2023-08-06T00:59:10;14.67;90.21
62464;SHT31;48512;48.552;9.380;2023-08-06T01:01:37;14.63;90.54
62464;SHT31;48512;48.552;9.380;2023-08-06T01:04:03;14.60;90.75
62464;SHT31;48512;48.552;9.380;2023-08-06T01:06:39;14.64;90.55
62464;SHT31;48512;48.552;9.380;2023-08-06T01:09:37;14.65;90.51
62464;SHT31;48512;48.552;9.380;2023-08-06T01:15:11;14.44;90.40
62464;SHT31;48512;48.552;9.380;2023-08-06T01:17:40;14.33;90.58
62464;SHT31;48512;48.552;9.380;2023-08-06T01:20:07;14.23;91.03
62464;SHT31;48512;48.552;9.380;2023-08-06T01:22:33;14.26;90.49
62464;SHT31;48512;48.552;9.380;2023-08-06T01:24:59;14.23;90.44
62464;SHT31;48512;48.552;9.380;2023-08-06T01:27:35;14.19;90.98
62464;SHT31;48512;48.552;9.380;2023-08-06T01:30:10;14.17;90.76
62464;SHT31;48512;48.552;9.380;2023-08-06T01:32:40;14.16;91.08
62464;SHT31;48512;48.552;9.380;2023-08-06T01:35:10;14.16;90.99
62464;SHT31;48512;48.552;9.380;2023-08-06T01:37:37;14.19;90.82
62464;SHT31;48512;48.552;9.380;2023-08-06T01:40:10;14.17;90.64
62464;SHT31;48512;48.552;9.380;2023-08-06T01:42:38;14.14;90.51
62464;SHT31;48512;48.552;9.380;2023-08-06T01:45:08;14.23;87.72
62464;SHT31;48512;48.552;9.380;2023-08-06T01:47:35;14.45;87.77
62464;SHT31;48512;48.552;9.380;2023-08-06T01:50:01;14.56;87.22
62464;SHT31;48512;48.552;9.380;2023-08-06T01:52:28;14.56;86.71
62464;SHT31;48512;48.552;9.380;2023-08-06T01:54:54;14.44;87.68
62464;SHT31;48512;48.552;9.380;2023-08-06T01:57:20;14.44;87.94
62464;SHT31;48512;48.552;9.380;2023-08-06T01:59:47;14.37;88.77
62464;SHT31;48512;48.552;9.380;2023-08-06T02:02:13;14.27;88.44
62464;SHT31;48512;48.552;9.380;2023-08-06T02:04:39;14.31;88.20
62464;SHT31;48512;48.552;9.380;2023-08-06T02:07:05;14.34;87.67
62464;SHT31;48512;48.552;9.380;2023-08-06T02:09:31;14.19;87.98
62464;SHT31;48512;48.552;9.380;2023-08-06T02:11:57;14.17;88.48
62464;SHT31;48512;48.552;9.380;2023-08-06T02:14:28;14.14;87.95
62464;SHT31;48512;48.552;9.380;2023-08-06T02:16:54;14.08;88.89
62464;SHT31;48512;48.552;9.380;2023-08-06T02:19:20;14.06;88.40
62464;SHT31;48512;48.552;9.380;2023-08-06T02:21:46;14.01;88.57
62464;SHT31;48512;48.552;9.380;2023-08-06T02:24:12;13.96;88.39
62464;SHT31;48512;48.552;9.380;2023-08-06T02:26:38;13.89;88.31
62464;SHT31;48512;48.552;9.380;2023-08-06T02:29:04;13.86;89.22
62464;SHT31;48512;48.552;9.380;2023-08-06T02:31:30;13.95;88.23
62464;SHT31;48512;48.552;9.380;2023-08-06T02:33:57;13.98;87.24
62464;SHT31;48512;48.552;9.380;2023-08-06T02:36:24;13.99;88.11
62464;SHT31;48512;48.552;9.380;2023-08-06T02:38:50;14.02;87.18
62464;SHT31;48512;48.552;9.380;2023-08-06T02:41:16;13.99;87.55
62464;SHT31;48512;48.552;9.380;2023-08-06T02:43:42;14.12;87.36
62464;SHT31;48512;48.552;9.380;2023-08-06T02:46:08;13.96;87.19
62464;SHT31;48512;48.552;9.380;2023-08-06T02:48:35;14.10;86.70
62464;SHT31;48512;48.552;9.380;2023-08-06T02:51:01;14.02;86.45
62464;SHT31;48512;48.552;9.380;2023-08-06T02:53:29;14.03;85.21
62464;SHT31;48512;48.552;9.380;2023-08-06T02:55:58;14.09;84.56
62464;SHT31;48512;48.552;9.380;2023-08-06T02:58:31;14.13;84.31
62464;SHT31;48512;48.552;9.380;2023-08-06T03:01:11;14.24;84.29
62464;SHT31;48512;48.552;9.380;2023-08-06T03:03:50;14.20;84.32
62464;SHT31;48512;48.552;9.380;2023-08-06T03:06:23;14.26;83.53
62464;SHT31;48512;48.552;9.380;2023-08-06T03:08:52;14.38;82.42
62464;SHT31;48512;48.552;9.380;2023-08-06T03:11:18;14.42;82.50
62464;SHT31;48512;48.552;9.380;2023-08-06T03:13:46;14.60;83.16
62464;SHT31;48512;48.552;9.380;2023-08-06T03:16:12;14.56;82.04
62464;SHT31;48512;48.552;9.380;2023-08-06T03:18:38;14.52;82.94
62464;SHT31;48512;48.552;9.380;2023-08-06T03:21:07;14.51;82.47
62464;SHT31;48512;48.552;9.380;2023-08-06T03:23:33;14.65;83.19
62464;SHT31;48512;48.552;9.380;2023-08-06T03:26:03;14.51;84.09
62464;SHT31;48512;48.552;9.380;2023-08-06T03:28:31;14.61;83.10
62464;SHT31;48512;48.552;9.380;2023-08-06T03:31:04;14.56;83.12
62464;SHT31;48512;48.552;9.380;2023-08-06T03:33:41;14.68;83.03
62464;SHT31;48512;48.552;9.380;2023-08-06T03:36:12;14.67;83.10
62464;SHT31;48512;48.552;9.380;2023-08-06T03:38:39;14.65;82.88
62464;SHT31;48512;48.552;9.380;2023-08-06T03:41:07;14.68;83.36
62464;SHT31;48512;48.552;9.380;2023-08-06T03:43:33;14.72;83.01
62464;SHT31;48512;48.552;9.380;2023-08-06T03:46:00;14.78;83.26
62464;SHT31;48512;48.552;9.380;2023-08-06T03:48:26;14.89;81.71
62464;SHT31;48512;48.552;9.380;2023-08-06T03:50:52;14.88;81.41
62464;SHT31;48512;48.552;9.380;2023-08-06T03:53:19;14.98;81.48
62464;SHT31;48512;48.552;9.380;2023-08-06T03:55:45;14.96;81.89
62464;SHT31;48512;48.552;9.380;2023-08-06T03:58:11;15.05;82.18
62464;SHT31;48512;48.552;9.380;2023-08-06T04:00:37;15.02;81.66
62464;SHT31;48512;48.552;9.380;2023-08-06T04:03:03;15.03;81.84
62464;SHT31;48512;48.552;9.380;2023-08-06T04:05:31;15.05;80.75
62464;SHT31;48512;48.552;9.380;2023-08-06T04:07:58;15.05;82.46
62464;SHT31;48512;48.552;9.380;2023-08-06T04:10:26;15.09;80.72
62464;SHT31;48512;48.552;9.380;2023-08-06T04:12:52;15.15;82.81
62464;SHT31;48512;48.552;9.380;2023-08-06T04:15:18;15.32;80.42
62464;SHT31;48512;48.552;9.380;2023-08-06T04:17:44;15.29;81.27
62464;SHT31;48512;48.552;9.380;2023-08-06T04:20:10;15.25;82.30
62464;SHT31;48512;48.552;9.380;2023-08-06T04:22:36;15.23;81.79
62464;SHT31;48512;48.552;9.380;2023-08-06T04:25:04;15.23;83.56
62464;SHT31;48512;48.552;9.380;2023-08-06T04:27:30;15.36;81.57
62464;SHT31;48512;48.552;9.380;2023-08-06T04:29:56;15.36;80.90
62464;SHT31;48512;48.552;9.380;2023-08-06T04:32:22;15.26;81.34
62464;SHT31;48512;48.552;9.380;2023-08-06T04:34:52;15.33;81.39
62464;SHT31;48512;48.552;9.380;2023-08-06T04:37:18;15.09;83.54
62464;SHT31;48512;48.552;9.380;2023-08-06T04:39:44;15.08;84.14
62464;SHT31;48512;48.552;9.380;2023-08-06T04:42:10;15.15;82.49
62464;SHT31;48512;48.552;9.380;2023-08-06T04:44:37;15.08;84.12
62464;SHT31;48512;48.552;9.380;2023-08-06T04:47:04;14.91;84.94
62464;SHT31;48512;48.552;9.380;2023-08-06T04:49:30;14.88;85.37
62464;SHT31;48512;48.552;9.380;2023-08-06T04:51:56;14.87;83.97
62464;SHT31;48512;48.552;9.380;2023-08-06T04:54:22;14.92;84.52
62464;SHT31;48512;48.552;9.380;2023-08-06T04:56:48;15.02;83.76
62464;SHT31;48512;48.552;9.380;2023-08-06T04:59:14;15.02;83.72
62464;SHT31;48512;48.552;9.380;2023-08-06T05:01:40;14.96;85.28
62464;SHT31;48512;48.552;9.380;2023-08-06T05:04:06;15.06;84.53
62464;SHT31;48512;48.552;9.380;2023-08-06T05:06:32;15.05;83.82
62464;SHT31;48512;48.552;9.380;2023-08-06T05:08:58;15.12;81.49
62464;SHT31;48512;48.552;9.380;2023-08-06T05:11:24;15.18;80.17
62464;SHT31;48512;48.552;9.380;2023-08-06T05:13:50;15.23;80.48
62464;SHT31;48512;48.552;9.380;2023-08-06T05:16:17;15.02;81.35
62464;SHT31;48512;48.552;9.380;2023-08-06T05:18:43;15.09;81.32
62464;SHT31;48512;48.552;9.380;2023-08-06T05:21:09;15.18;79.87
62464;SHT31;48512;48.552;9.380;2023-08-06T05:23:35;15.12;80.34
62464;SHT31;48512;48.552;9.380;2023-08-06T05:26:01;14.87;81.83
62464;SHT31;48512;48.552;9.380;2023-08-06T05:28:27;14.87;83.22
62464;SHT31;48512;48.552;9.380;2023-08-06T05:30:53;14.99;81.66
62464;SHT31;48512;48.552;9.380;2023-08-06T05:33:19;14.91;81.66
62464;SHT31;48512;48.552;9.380;2023-08-06T05:35:45;14.93;82.28
62464;SHT31;48512;48.552;9.380;2023-08-06T05:38:11;14.89;81.35
62464;SHT31;48512;48.552;9.380;2023-08-06T05:40:37;14.93;82.08
62464;SHT31;48512;48.552;9.380;2023-08-06T05:43:03;14.92;81.86
62464;SHT31;48512;48.552;9.380;2023-08-06T05:45:33;15.03;80.87
62464;SHT31;48512;48.552;9.380;2023-08-06T05:47:59;15.05;81.24
62464;SHT31;48512;48.552;9.380;2023-08-06T05:50:25;15.19;81.28
62464;SHT31;48512;48.552;9.380;2023-08-06T05:52:51;15.40;80.18
62464;SHT31;48512;48.552;9.380;2023-08-06T05:55:19;15.51;79.99
62464;SHT31;48512;48.552;9.380;2023-08-06T05:57:45;15.30;80.75
62464;SHT31;48512;48.552;9.380;2023-08-06T06:00:11;15.26;80.36
62464;SHT31;48512;48.552;9.380;2023-08-06T06:02:40;15.36;79.55
62464;SHT31;48512;48.552;9.380;2023-08-06T06:05:07;15.22;79.94
62464;SHT31;48512;48.552;9.380;2023-08-06T06:07:33;15.26;79.11
62464;SHT31;48512;48.552;9.380;2023-08-06T06:09:59;15.22;79.47
62464;SHT31;48512;48.552;9.380;2023-08-06T06:12:25;15.36;78.79
62464;SHT31;48512;48.552;9.380;2023-08-06T06:14:52;15.37;78.90
62464;SHT31;48512;48.552;9.380;2023-08-06T06:17:18;15.37;78.69
62464;SHT31;48512;48.552;9.380;2023-08-06T06:19:44;15.33;78.14
62464;SHT31;48512;48.552;9.380;2023-08-06T06:22:10;15.36;78.61
62464;SHT31;48512;48.552;9.380;2023-08-06T06:24:36;15.29;80.25
62464;SHT31;48512;48.552;9.380;2023-08-06T06:27:02;15.43;79.51
62464;SHT31;48512;48.552;9.380;2023-08-06T06:29:28;15.40;80.17
62464;SHT31;48512;48.552;9.380;2023-08-06T06:31:54;15.23;80.87
62464;SHT31;48512;48.552;9.380;2023-08-06T06:34:21;15.37;80.45
62464;SHT31;48512;48.552;9.380;2023-08-06T06:36:47;15.35;80.65
62464;SHT31;48512;48.552;9.380;2023-08-06T06:39:15;15.05;81.49
62464;SHT31;48512;48.552;9.380;2023-08-06T06:41:41;15.12;81.72
62464;SHT31;48512;48.552;9.380;2023-08-06T06:44:17;15.09;81.88
62464;SHT31;48512;48.552;9.380;2023-08-06T06:46:45;15.13;81.52
62464;SHT31;48512;48.552;9.380;2023-08-06T06:49:11;15.22;81.44
62464;SHT31;48512;48.552;9.380;2023-08-06T06:51:38;15.37;80.70
62464;SHT31;48512;48.552;9.380;2023-08-06T06:54:04;15.26;82.14
62464;SHT31;48512;48.552;9.380;2023-08-06T06:56:30;15.26;81.71
62464;SHT31;48512;48.552;9.380;2023-08-06T06:58:56;15.50;81.81
62464;SHT31;48512;48.552;9.380;2023-08-06T07:01:22;15.49;80.15
62464;SHT31;48512;48.552;9.380;2023-08-06T07:03:48;15.19;80.62
62464;SHT31;48512;48.552;9.380;2023-08-06T07:06:14;15.25;81.67
62464;SHT31;48512;48.552;9.380;2023-08-06T07:08:41;15.32;81.01
62464;SHT31;48512;48.552;9.380;2023-08-06T07:11:07;15.33;81.55
62464;SHT31;48512;48.552;9.380;2023-08-06T07:13:34;15.43;80.95
62464;SHT31;48512;48.552;9.380;2023-08-06T07:16:00;15.53;80.11
62464;SHT31;48512;48.552;9.380;2023-08-06T07:18:26;15.35;79.47
62464;SHT31;48512;48.552;9.380;2023-08-06T07:20:53;15.54;80.29
62464;SHT31;48512;48.552;9.380;2023-08-06T07:23:21;15.64;78.84
62464;SHT31;48512;48.552;9.380;2023-08-06T07:25:47;15.57;82.36
62464;SHT31;48512;48.552;9.380;2023-08-06T07:28:14;15.73;79.90
62464;SHT31;48512;48.552;9.380;2023-08-06T07:30:41;15.57;80.13
62464;SHT31;48512;48.552;9.380;2023-08-06T07:33:07;15.71;79.53
62464;SHT31;48512;48.552;9.380;2023-08-06T07:35:34;15.51;80.57
62464;SHT31;48512;48.552;9.380;2023-08-06T07:38:00;15.49;80.51
62464;SHT31;48512;48.552;9.380;2023-08-06T07:40:26;15.37;83.05
62464;SHT31;48512;48.552;9.380;2023-08-06T07:42:52;15.58;82.02
62464;SHT31;48512;48.552;9.380;2023-08-06T07:45:18;15.57;80.02
62464;SHT31;48512;48.552;9.380;2023-08-06T07:47:44;15.35;82.06
62464;SHT31;48512;48.552;9.380;2023-08-06T07:50:10;15.36;81.81
62464;SHT31;48512;48.552;9.380;2023-08-06T07:52:37;15.42;81.77
62464;SHT31;48512;48.552;9.380;2023-08-06T07:55:03;15.54;81.80
62464;SHT31;48512;48.552;9.380;2023-08-06T07:57:31;15.42;81.09
62464;SHT31;48512;48.552;9.380;2023-08-06T07:59:57;15.35;82.51
62464;SHT31;48512;48.552;9.380;2023-08-06T08:02:24;15.46;81.32
62464;SHT31;48512;48.552;9.380;2023-08-06T08:04:50;15.35;82.53
62464;SHT31;48512;48.552;9.380;2023-08-06T08:07:16;15.37;81.50
62464;SHT31;48512;48.552;9.380;2023-08-06T08:09:42;15.27;81.23
62464;SHT31;48512;48.552;9.380;2023-08-06T08:12:08;15.27;82.61
62464;SHT31;48512;48.552;9.380;2023-08-06T08:14:34;15.23;81.72
62464;SHT31;48512;48.552;9.380;2023-08-06T08:17:04;15.40;81.11
62464;SHT31;48512;48.552;9.380;2023-08-06T08:19:34;15.35;80.47
62464;SHT31;48512;48.552;9.380;2023-08-06T08:22:00;15.19;81.66
62464;SHT31;48512;48.552;9.380;2023-08-06T08:24:29;15.25;81.27
62464;SHT31;48512;48.552;9.380;2023-08-06T08:26:56;15.55;79.69
62464;SHT31;48512;48.552;9.380;2023-08-06T08:29:22;15.29;80.90
62464;SHT31;48512;48.552;9.380;2023-08-06T08:31:49;15.22;82.65
62464;SHT31;48512;48.552;9.380;2023-08-06T08:34:16;15.46;81.73
62464;SHT31;48512;48.552;9.380;2023-08-06T08:36:43;15.33;82.80
62464;SHT31;48512;48.552;9.380;2023-08-06T08:39:09;15.35;83.22
62464;SHT31;48512;48.552;9.380;2023-08-06T08:41:36;15.49;80.97
62464;SHT31;48512;48.552;9.380;2023-08-06T08:44:05;15.15;83.14
62464;SHT31;48512;48.552;9.380;2023-08-06T08:46:33;15.29;82.70
62464;SHT31;48512;48.552;9.380;2023-08-06T08:49:01;15.08;83.29
62464;SHT31;48512;48.552;9.380;2023-08-06T08:51:29;15.20;84.20
62464;SHT31;48512;48.552;9.380;2023-08-06T08:53:55;15.43;83.59
62464;SHT31;48512;48.552;9.380;2023-08-06T08:56:23;15.70;82.55
62464;SHT31;48512;48.552;9.380;2023-08-06T08:58:50;15.42;82.70
62464;SHT31;48512;48.552;9.380;2023-08-06T09:01:19;15.36;82.59
62464;SHT31;48512;48.552;9.380;2023-08-06T09:03:46;15.23;82.00
62464;SHT31;48512;48.552;9.380;2023-08-06T09:06:13;15.33;83.29
62464;SHT31;48512;48.552;9.380;2023-08-06T09:09:01;15.37;82.46
62464;SHT31;48512;48.552;9.380;2023-08-06T09:11:44;15.47;83.56
62464;SHT31;48512;48.552;9.380;2023-08-06T09:14:11;15.40;82.53
62464;SHT31;48512;48.552;9.380;2023-08-06T09:16:37;15.42;83.03
62464;SHT31;48512;48.552;9.380;2023-08-06T09:19:10;15.39;83.34
62464;SHT31;48512;48.552;9.380;2023-08-06T09:21:39;15.43;83.14
62464;SHT31;48512;48.552;9.380;2023-08-06T09:24:09;15.32;82.98
62464;SHT31;48512;48.552;9.380;2023-08-06T09:26:37;15.35;83.68
62464;SHT31;48512;48.552;9.380;2023-08-06T09:29:07;15.29;82.67
62464;SHT31;48512;48.552;9.380;2023-08-06T09:34:20;15.26;84.65
62464;SHT31;48512;48.552;9.380;2023-08-06T09:36:49;15.47;84.77
62464;SHT31;48512;48.552;9.380;2023-08-06T09:39:18;15.64;84.29
62464;SHT31;48512;48.552;9.380;2023-08-06T09:41:45;15.58;86.16
62464;SHT31;48512;48.552;9.380;2023-08-06T09:44:18;15.46;83.44
62464;SHT31;48512;48.552;9.380;2023-08-06T09:46:52;15.53;84.17
62464;SHT31;48512;48.552;9.380;2023-08-06T09:49:20;15.78;84.26
62464;SHT31;48512;48.552;9.380;2023-08-06T09:51:46;15.65;81.91
62464;SHT31;48512;48.552;9.380;2023-08-06T09:54:17;15.64;82.78
62464;SHT31;48512;48.552;9.380;2023-08-06T09:56:44;15.64;83.62
62464;SHT31;48512;48.552;9.380;2023-08-06T09:59:10;15.64;84.02
62464;SHT31;48512;48.552;9.380;2023-08-06T10:01:39;15.77;83.69
62464;SHT31;48512;48.552;9.380;2023-08-06T10:04:06;15.71;83.24
62464;SHT31;48512;48.552;9.380;2023-08-06T10:06:37;15.67;83.52
62464;SHT31;48512;48.552;9.380;2023-08-06T10:09:04;16.01;81.61
62464;SHT31;48512;48.552;9.380;2023-08-06T10:11:30;15.85;82.90
62464;SHT31;48512;48.552;9.380;2023-08-06T10:14:02;15.85;83.12
62464;SHT31;48512;48.552;9.380;2023-08-06T10:16:29;15.71;82.86
62464;SHT31;48512;48.552;9.380;2023-08-06T10:18:57;15.53;83.46
62464;SHT31;48512;48.552;9.380;2023-08-06T10:21:24;15.29;84.00
62464;SHT31;48512;48.552;9.380;2023-08-06T10:23:54;15.10;85.23
62464;SHT31;48512;48.552;9.380;2023-08-06T10:26:20;15.22;85.24
62464;SHT31;48512;48.552;9.380;2023-08-06T10:28:46;15.06;84.24
62464;SHT31;48512;48.552;9.380;2023-08-06T10:31:12;15.12;85.42
62464;SHT31;48512;48.552;9.380;2023-08-06T10:33:46;15.03;85.35
62464;SHT31;48512;48.552;9.380;2023-08-06T10:36:13;15.15;85.46
62464;SHT31;48512;48.552;9.380;2023-08-06T10:38:49;15.22;84.37
62464;SHT31;48512;48.552;9.380;2023-08-06T10:41:22;15.29;84.37
62464;SHT31;48512;48.552;9.380;2023-08-06T10:43:48;15.27;84.37
62464;SHT31;48512;48.552;9.380;2023-08-06T10:46:27;15.25;84.95
62464;SHT31;48512;48.552;9.380;2023-08-06T10:48:54;15.51;84.86
62464;SHT31;48512;48.552;9.380;2023-08-06T10:51:20;15.18;84.62
62464;SHT31;48512;48.552;9.380;2023-08-06T10:53:48;15.19;84.73
62464;SHT31;48512;48.552;9.380;2023-08-06T10:56:15;15.20;85.13
62464;SHT31;48512;48.552;9.380;2023-08-06T10:58:42;15.09;85.65
62464;SHT31;48512;48.552;9.380;2023-08-06T11:01:10;14.96;87.15
62464;SHT31;48512;48.552;9.380;2023-08-06T11:03:36;15.09;88.12
62464;SHT31;48512;48.552;9.380;2023-08-06T11:06:03;15.22;86.19
62464;SHT31;48512;48.552;9.380;2023-08-06T11:08:35;15.22;85.99
62464;SHT31;48512;48.552;9.380;2023-08-06T11:13:35;15.23;84.97
62464;SHT31;48512;48.552;9.380;2023-08-06T11:16:01;15.15;84.58
62464;SHT31;48512;48.552;9.380;2023-08-06T11:18:28;15.18;85.38
62464;SHT31;48512;48.552;9.380;2023-08-06T11:20:54;15.30;85.09
62464;SHT31;48512;48.552;9.380;2023-08-06T11:23:20;15.18;86.79
62464;SHT31;48512;48.552;9.380;2023-08-06T11:25:46;15.20;86.76
62464;SHT31;48512;48.552;9.380;2023-08-06T11:28:12;15.10;86.57
62464;SHT31;48512;48.552;9.380;2023-08-06T11:30:38;15.18;86.28
62464;SHT31;48512;48.552;9.380;2023-08-06T11:33:07;15.29;86.40
62464;SHT31;48512;48.552;9.380;2023-08-06T11:35:37;15.30;86.48
62464;SHT31;48512;48.552;9.380;2023-08-06T11:38:03;15.49;85.92
62464;SHT31;48512;48.552;9.380;2023-08-06T11:40:30;15.58;85.01
62464;SHT31;48512;48.552;9.380;2023-08-06T11:42:57;15.54;84.65
62464;SHT31;48512;48.552;9.380;2023-08-06T11:45:24;15.57;85.30
62464;SHT31;48512;48.552;9.380;2023-08-06T11:47:51;15.50;85.79
62464;SHT31;48512;48.552;9.380;2023-08-06T11:50:27;15.57;84.72
62464;SHT31;48512;48.552;9.380;2023-08-06T11:53:02;15.49;86.57
62464;SHT31;48512;48.552;9.380;2023-08-06T11:55:29;15.44;85.14
62464;SHT31;48512;48.552;9.380;2023-08-06T11:57:55;15.51;86.00
62464;SHT31;48512;48.552;9.380;2023-08-06T12:00:25;15.47;85.63
62464;SHT31;48512;48.552;9.380;2023-08-06T12:02:51;15.60;84.39
62464;SHT31;48512;48.552;9.380;2023-08-06T12:05:20;15.65;85.00
62464;SHT31;48512;48.552;9.380;2023-08-06T12:07:56;15.74;84.49
62464;SHT31;48512;48.552;9.380;2023-08-06T12:10:24;15.75;84.54
62464;SHT31;48512;48.552;9.380;2023-08-06T12:12:52;15.84;86.67
62464;SHT31;48512;48.552;9.380;2023-08-06T12:15:19;15.82;83.88
62464;SHT31;48512;48.552;9.380;2023-08-06T12:17:45;15.78;84.79
62464;SHT31;48512;48.552;9.380;2023-08-06T12:20:12;15.98;84.01
62464;SHT31;48512;48.552;9.380;2023-08-06T12:22:38;15.82;83.69
62464;SHT31;48512;48.552;9.380;2023-08-06T12:25:07;15.81;83.82
62464;SHT31;48512;48.552;9.380;2023-08-06T12:27:35;15.77;83.74
62464;SHT31;48512;48.552;9.380;2023-08-06T12:30:01;15.80;84.86
62464;SHT31;48512;48.552;9.380;2023-08-06T12:32:28;15.84;82.78
62464;SHT31;48512;48.552;9.380;2023-08-06T12:34:54;15.58;84.99
62464;SHT31;48512;48.552;9.380;2023-08-06T12:37:21;15.58;85.61
62464;SHT31;48512;48.552;9.380;2023-08-06T12:39:47;15.77;83.81
62464;SHT31;48512;48.552;9.380;2023-08-06T12:42:13;16.01;82.29
62464;SHT31;48512;48.552;9.380;2023-08-06T12:44:39;16.05;81.70
62464;SHT31;48512;48.552;9.380;2023-08-06T12:47:07;16.13;81.34
62464;SHT31;48512;48.552;9.380;2023-08-06T12:49:33;16.00;79.09
62464;SHT31;48512;48.552;9.380;2023-08-06T12:52:00;15.95;79.75
62464;SHT31;48512;48.552;9.380;2023-08-06T12:54:26;16.04;79.18
62464;SHT31;48512;48.552;9.380;2023-08-06T12:56:53;16.06;78.54
62464;SHT31;48512;48.552;9.380;2023-08-06T12:59:19;16.02;77.92
62464;SHT31;48512;48.552;9.380;2023-08-06T13:01:46;16.12;77.81
62464;SHT31;48512;48.552;9.380;2023-08-06T13:04:12;16.15;78.11
62464;SHT31;48512;48.552;9.380;2023-08-06T13:06:38;16.19;78.48
62464;SHT31;48512;48.552;9.380;2023-08-06T13:09:06;15.87;77.70
62464;SHT31;48512;48.552;9.380;2023-08-06T13:11:38;15.84;79.10
62464;SHT31;48512;48.552;9.380;2023-08-06T13:14:11;15.98;79.03
62464;SHT31;48512;48.552;9.380;2023-08-06T13:16:39;15.90;78.78
62464;SHT31;48512;48.552;9.380;2023-08-06T13:19:06;16.11;76.92
62464;SHT31;48512;48.552;9.380;2023-08-06T13:24:24;16.45;76.26
62464;SHT31;48512;48.552;9.380;2023-08-06T13:26:50;16.33;76.93
62464;SHT31;48512;48.552;9.380;2023-08-06T13:29:16;16.43;76.14
62464;SHT31;48512;48.552;9.380;2023-08-06T13:31:42;16.64;75.35
62464;SHT31;48512;48.552;9.380;2023-08-06T13:34:08;16.74;75.72
62464;SHT31;48512;48.552;9.380;2023-08-06T13:36:35;16.77;76.71
62464;SHT31;48512;48.552;9.380;2023-08-06T13:39:01;16.85;76.29
62464;SHT31;48512;48.552;9.380;2023-08-06T13:41:27;17.08;75.08
62464;SHT31;48512;48.552;9.380;2023-08-06T13:43:53;17.22;73.66
62464;SHT31;48512;48.552;9.380;2023-08-06T13:46:19;17.07;74.18
62464;SHT31;48512;48.552;9.380;2023-08-06T13:48:47;17.15;74.05
62464;SHT31;48512;48.552;9.380;2023-08-06T13:51:14;17.05;73.24
62464;SHT31;48512;48.552;9.380;2023-08-06T13:53:40;17.01;72.16
62464;SHT31;48512;48.552;9.380;2023-08-06T13:56:07;16.91;72.92
62464;SHT31;48512;48.552;9.380;2023-08-06T13:58:35;17.29;73.04
62464;SHT31;48512;48.552;9.380;2023-08-06T14:01:01;17.31;72.22
62464;SHT31;48512;48.552;9.380;2023-08-06T14:03:27;17.25;72.01
62464;SHT31;48512;48.552;9.380;2023-08-06T14:05:54;17.24;72.38
62464;SHT31;48512;48.552;9.380;2023-08-06T14:08:23;17.10;72.52
62464;SHT31;48512;48.552;9.380;2023-08-06T14:10:50;17.19;72.89
62464;SHT31;48512;48.552;9.380;2023-08-06T14:13:17;17.15;73.44
62464;SHT31;48512;48.552;9.380;2023-08-06T14:15:43;17.18;73.63
62464;SHT31;48512;48.552;9.380;2023-08-06T14:18:13;17.11;72.72
62464;SHT31;48512;48.552;9.380;2023-08-06T14:20:43;16.81;73.67
62464;SHT31;48512;48.552;9.380;2023-08-06T14:23:10;16.68;73.38
62464;SHT31;48512;48.552;9.380;2023-08-06T14:25:37;17.05;73.23
62464;SHT31;48512;48.552;9.380;2023-08-06T14:28:03;17.00;72.97
62464;SHT31;48512;48.552;9.380;2023-08-06T14:30:30;16.81;73.79
62464;SHT31;48512;48.552;9.380;2023-08-06T14:32:56;16.52;75.30
62464;SHT31;48512;48.552;9.380;2023-08-06T14:35:22;16.68;74.56
62464;SHT31;48512;48.552;9.380;2023-08-06T14:37:48;16.84;74.76
62464;SHT31;48512;48.552;9.380;2023-08-06T14:40:14;16.83;74.17
62464;SHT31;48512;48.552;9.380;2023-08-06T14:42:40;16.80;74.49
62464;SHT31;48512;48.552;9.380;2023-08-06T14:45:06;16.67;76.11
62464;SHT31;48512;48.552;9.380;2023-08-06T14:47:32;16.66;77.19
62464;SHT31;48512;48.552;9.380;2023-08-06T14:49:58;16.66;77.63
62464;SHT31;48512;48.552;9.380;2023-08-06T14:52:25;16.47;76.95
62464;SHT31;48512;48.552;9.380;2023-08-06T14:54:51;16.28;78.23
62464;SHT31;48512;48.552;9.380;2023-08-06T14:57:18;16.12;79.71
62464;SHT31;48512;48.552;9.380;2023-08-06T14:59:44;16.01;79.89
62464;SHT31;48512;48.552;9.380;2023-08-06T15:02:10;16.01;79.87
62464;SHT31;48512;48.552;9.380;2023-08-06T15:04:36;15.81;81.34
62464;SHT31;48512;48.552;9.380;2023-08-06T15:07:03;16.04;80.90
62464;SHT31;48512;48.552;9.380;2023-08-06T15:09:29;15.91;78.92
62464;SHT31;48512;48.552;9.380;2023-08-06T15:11:55;15.92;81.11
62464;SHT31;48512;48.552;9.380;2023-08-06T15:14:21;15.88;81.10
62464;SHT31;48512;48.552;9.380;2023-08-06T15:16:47;16.00;80.03
62464;SHT31;48512;48.552;9.380;2023-08-06T15:19:14;15.91;81.71
62464;SHT31;48512;48.552;9.380;2023-08-06T15:21:40;15.84;81.31
62464;SHT31;48512;48.552;9.380;2023-08-06T15:24:06;15.77;80.08
62464;SHT31;48512;48.552;9.380;2023-08-06T15:26:32;15.64;80.77
62464;SHT31;48512;48.552;9.380;2023-08-06T15:29:00;15.64;79.53
62464;SHT31;48512;48.552;9.380;2023-08-06T15:31:36;15.47;81.18
62464;SHT31;48512;48.552;9.380;2023-08-06T15:34:06;15.57;80.72
62464;SHT31;48512;48.552;9.380;2023-08-06T15:36:33;15.46;80.99
62464;SHT31;48512;48.552;9.380;2023-08-06T15:39:03;15.57;80.95
62464;SHT31;48512;48.552;9.380;2023-08-06T15:41:32;15.49;81.41